Rossville, Ohio
Current Conditions -  °F | °C
As of 10:53 AM on Friday 21 Nov 2014 (Local Time) from KHAO Reporting Station
Clear Clear  
Wind Chill: -7°   Ceiling: Unl
Heat Index: -4°   Visibility: 10mi
Dew Point: -11°   Wind: 5mph
Humidity: 58%   Direction: 100°E
Pressure: 30.55"   Gusts: NA
Location:  39.4158°N, 84.6488°W
Report Text: KHAO 211553Z AUTO 10004KT 10SM CLR M04/M11 A3055 RMK AO2 SLP357 T10391111
Loading
Personal Weather Stations






























Interactive Weather Map New forecast layout! Learn more

10-Day Weather Forecast

Advertisements
Track Severe Weather on mobile